Time;durP1;ratioP1;P1;durP2;ratioP2;P2;SDS_P1;SDS_P2;PMS_P1;PMS_P2;Temp;Humidity;BMP_temperature;BMP_pressure;BME280_temperature;BME280_humidity;BME280_pressure;Samples;Min_cycle;Max_cycle;Signal;HPM_P1;HPM_P2
2020/12/04 00:00:54;;;;;;;20.00;14.77;;;;;;;-4.39;89.62;93463.06;5003888;28;20846;-78
2020/12/04 00:03:21;;;;;;;13.80;11.47;;;;;;;-4.36;90.02;93462.78;4984912;28;20593;-78
2020/12/04 00:05:50;;;;;;;17.33;14.63;;;;;;;-4.30;89.77;93456.19;4993945;28;20483;-78
2020/12/04 00:08:17;;;;;;;18.73;14.17;;;;;;;-4.28;89.48;93450.94;4985665;28;21080;-78
2020/12/04 00:10:44;;;;;;;15.07;11.43;;;;;;;-4.27;89.46;93444.81;5004066;28;20561;-77
2020/12/04 00:13:13;;;;;;;19.90;15.53;;;;;;;-4.25;89.86;93445.47;5001150;28;20487;-77
2020/12/04 00:15:43;;;;;;;17.00;12.33;;;;;;;-4.25;89.84;93437.75;4986943;28;20476;-77
2020/12/04 00:18:11;;;;;;;18.43;14.47;;;;;;;-4.23;89.67;93430.66;4984922;28;20495;-77
2020/12/04 00:20:38;;;;;;;17.53;13.67;;;;;;;-4.17;89.54;93425.75;5001285;28;20472;-77
2020/12/04 00:23:06;;;;;;;14.10;12.20;;;;;;;-4.18;89.20;93413.81;4991609;28;21032;-77
2020/12/04 00:25:34;;;;;;;16.23;12.67;;;;;;;-4.18;89.56;93413.03;5003935;28;22649;-77
2020/12/04 00:28:04;;;;;;;20.47;13.67;;;;;;;-4.09;89.76;93404.38;5003122;28;20455;-76
2020/12/04 00:30:32;;;;;;;17.97;14.53;;;;;;;-4.06;89.36;93401.50;5004347;28;20491;-77
2020/12/04 00:33:00;;;;;;;17.63;13.33;;;;;;;-3.99;89.15;93402.53;5000925;28;20546;-77
2020/12/04 00:35:27;;;;;;;18.93;12.80;;;;;;;-3.94;89.13;93402.84;5004568;28;20877;-77
2020/12/04 00:37:54;;;;;;;22.40;13.93;;;;;;;-3.94;89.81;93404.63;5001708;28;20542;-77
2020/12/04 00:40:21;;;;;;;17.97;14.80;;;;;;;-3.98;89.81;93404.13;5003237;28;20511;-77
2020/12/04 00:42:48;;;;;;;20.83;15.47;;;;;;;-4.00;89.33;93395.75;5005033;28;20483;-77
2020/12/04 00:45:16;;;;;;;17.03;13.57;;;;;;;-4.02;89.89;93393.34;5006187;28;20467;-77
2020/12/04 00:47:44;;;;;;;18.07;14.10;;;;;;;-4.03;90.06;93380.59;4998117;28;20500;-77
2020/12/04 00:50:12;;;;;;;18.07;12.10;;;;;;;-4.03;89.56;93396.03;5003875;28;20583;-77
2020/12/04 00:52:39;;;;;;;20.17;14.00;;;;;;;-4.00;90.20;93380.31;4986085;28;20478;-77
2020/12/04 00:55:06;;;;;;;17.70;13.13;;;;;;;-3.99;90.34;93374.19;5008040;28;20472;-77
2020/12/04 00:57:33;;;;;;;19.03;14.70;;;;;;;-3.98;89.64;93375.78;5006825;28;20550;-77
2020/12/04 01:00:00;;;;;;;19.47;13.77;;;;;;;-4.00;90.40;93370.00;5003389;28;20510;-77
2020/12/04 01:02:27;;;;;;;18.60;13.03;;;;;;;-4.00;89.79;93375.16;4991646;28;20524;-77
2020/12/04 01:04:54;;;;;;;18.97;13.57;;;;;;;-3.97;89.76;93380.00;4991421;28;20585;-77
2020/12/04 01:07:21;;;;;;;16.37;13.20;;;;;;;-3.96;90.50;93381.59;4989291;28;20542;-77
2020/12/04 01:09:48;;;;;;;14.13;11.80;;;;;;;-3.96;90.15;93366.13;4995368;28;20735;-77
2020/12/04 01:12:15;;;;;;;18.13;13.83;;;;;;;-3.92;90.29;93367.47;5002376;28;20553;-78
2020/12/04 01:14:42;;;;;;;15.67;12.80;;;;;;;-3.89;90.22;93371.50;4989653;28;20830;-77
2020/12/04 01:17:09;;;;;;;16.87;15.20;;;;;;;-3.87;90.32;93367.81;4999869;28;20960;-77
2020/12/04 01:19:36;;;;;;;18.37;13.77;;;;;;;-3.86;90.32;93366.84;5007335;28;20529;-78
2020/12/04 01:22:04;;;;;;;18.67;15.70;;;;;;;-3.84;90.73;93357.22;4991148;28;21071;-77
2020/12/04 01:24:31;;;;;;;17.93;12.27;;;;;;;-3.82;90.56;93347.56;4988908;28;20470;-77
2020/12/04 01:26:58;;;;;;;15.70;12.77;;;;;;;-3.85;90.35;93353.00;5006594;28;20475;-77
2020/12/04 01:29:24;;;;;;;15.77;10.57;;;;;;;-3.86;89.91;93350.56;5021332;28;21060;-77
2020/12/04 01:31:51;;;;;;;16.93;13.87;;;;;;;-3.88;90.20;93353.31;4986724;28;21123;-77
2020/12/04 01:34:18;;;;;;;18.90;13.43;;;;;;;-3.89;89.89;93336.25;4993595;28;20579;-77
2020/12/04 01:36:45;;;;;;;18.37;12.27;;;;;;;-3.86;90.60;93335.13;4979227;28;20563;-77
2020/12/04 01:39:12;;;;;;;15.20;12.47;;;;;;;-3.88;90.22;93337.84;5003269;28;20565;-77
2020/12/04 01:41:39;;;;;;;17.13;14.00;;;;;;;-3.85;90.11;93336.72;5004959;28;20471;-77
2020/12/04 01:44:06;;;;;;;16.60;12.77;;;;;;;-3.83;90.01;93329.69;5004854;28;20498;-77
2020/12/04 01:46:33;;;;;;;20.57;14.20;;;;;;;-3.81;90.46;93322.59;5000752;28;20491;-77
2020/12/04 01:49:00;;;;;;;18.53;13.33;;;;;;;-3.85;90.01;93322.06;4997821;28;20976;-77
2020/12/04 01:51:27;;;;;;;17.90;13.57;;;;;;;-3.83;90.03;93317.59;5003094;28;21008;-77
2020/12/04 01:53:54;;;;;;;17.07;12.80;;;;;;;-3.77;90.23;93313.56;5005567;28;20472;-77
2020/12/04 01:56:22;;;;;;;15.80;12.07;;;;;;;-3.78;90.13;93309.38;5002995;28;20546;-77
2020/12/04 01:58:49;;;;;;;17.50;13.53;;;;;;;-3.82;90.37;93301.16;5000569;28;20559;-78
2020/12/04 02:01:17;;;;;;;15.80;13.10;;;;;;;-3.77;90.74;93304.06;5006822;28;20476;-78
2020/12/04 02:03:44;;;;;;;13.43;11.53;;;;;;;-3.79;90.10;93300.84;5004025;28;20699;-77
2020/12/04 02:06:19;;;;;;;15.87;13.17;;;;;;;-3.82;90.56;93296.03;4998415;28;20473;-77
2020/12/04 02:08:51;;;;;;;16.03;13.00;;;;;;;-3.76;90.55;93290.22;4993621;28;20540;-77
2020/12/04 02:11:23;;;;;;;19.83;14.43;;;;;;;-3.73;90.59;93276.25;5004447;28;21056;-77
2020/12/04 02:13:52;;;;;;;16.20;12.37;;;;;;;-3.72;90.71;93276.09;4997334;28;20490;-78
2020/12/04 02:16:20;;;;;;;15.83;13.97;;;;;;;-3.69;90.62;93276.72;4985929;28;20476;-77
2020/12/04 02:18:47;;;;;;;18.50;13.37;;;;;;;-3.67;90.69;93275.59;4996374;28;20475;-77
2020/12/04 02:21:15;;;;;;;17.50;12.60;;;;;;;-3.73;90.81;93279.63;4991659;28;20614;-77
2020/12/04 02:23:45;;;;;;;19.70;14.03;;;;;;;-3.67;90.54;93277.38;5006046;28;20980;-77
2020/12/04 02:26:14;;;;;;;15.13;12.13;;;;;;;-3.68;90.31;93276.56;4981477;28;20468;-77
2020/12/04 02:28:41;;;;;;;20.03;14.97;;;;;;;-3.74;89.80;93267.72;4989449;28;20742;-77
2020/12/04 02:31:08;;;;;;;18.07;15.70;;;;;;;-3.80;90.79;93265.75;4994447;28;20476;-78
2020/12/04 02:33:36;;;;;;;17.90;13.87;;;;;;;-3.83;90.32;93257.53;5005430;28;20498;-77
2020/12/04 02:36:04;;;;;;;21.20;16.10;;;;;;;-3.86;90.26;93248.31;5000381;28;20520;-78
2020/12/04 02:38:32;;;;;;;18.57;13.33;;;;;;;-3.75;90.27;93248.06;4986700;28;20464;-78
2020/12/04 02:40:59;;;;;;;19.63;15.97;;;;;;;-3.81;90.68;93251.25;4994307;28;20602;-77
2020/12/04 02:43:26;;;;;;;20.90;16.80;;;;;;;-3.80;90.12;93242.56;5002222;28;20503;-77
2020/12/04 02:45:54;;;;;;;20.20;15.73;;;;;;;-3.78;90.93;93227.75;4992325;28;20498;-78
2020/12/04 02:48:21;;;;;;;18.17;14.40;;;;;;;-3.83;90.93;93237.72;5002659;28;20758;-78
2020/12/04 02:50:47;;;;;;;22.63;15.73;;;;;;;-3.84;91.06;93223.22;4987457;28;20476;-77
2020/12/04 02:53:14;;;;;;;17.80;14.00;;;;;;;-3.83;91.22;93224.84;4982368;28;20860;-77
2020/12/04 02:55:42;;;;;;;18.70;14.70;;;;;;;-3.83;91.95;93222.25;4984113;28;20479;-76
2020/12/04 02:58:09;;;;;;;18.70;13.47;;;;;;;-3.79;91.71;93227.91;4998049;28;21040;-77
2020/12/04 03:00:35;;;;;;;15.00;12.60;;;;;;;-3.70;91.32;93223.56;5003994;28;20575;-78
2020/12/04 03:03:02;;;;;;;17.80;13.20;;;;;;;-3.76;90.89;93206.97;5002151;28;21064;-78
2020/12/04 03:05:29;;;;;;;18.30;11.87;;;;;;;-3.72;89.77;93208.28;4997587;28;20550;-78
2020/12/04 03:07:56;;;;;;;15.47;12.80;;;;;;;-3.83;89.92;93196.50;5004475;28;20464;-78
2020/12/04 03:10:23;;;;;;;14.80;10.13;;;;;;;-3.85;90.27;93205.34;5004702;28;20521;-78
2020/12/04 03:12:50;;;;;;;13.80;10.97;;;;;;;-3.80;89.84;93206.47;5001548;28;20472;-77
2020/12/04 03:15:17;;;;;;;18.00;11.83;;;;;;;-3.85;89.40;93206.13;5003764;28;20506;-78
2020/12/04 03:17:44;;;;;;;13.20;11.90;;;;;;;-3.83;89.21;93201.66;5001139;28;20503;-78
2020/12/04 03:20:11;;;;;;;11.67;10.23;;;;;;;-3.83;88.78;93193.94;4992674;28;20547;-78
2020/12/04 03:22:37;;;;;;;16.70;14.53;;;;;;;-3.85;88.87;93198.41;4972349;28;20839;-77
2020/12/04 03:25:04;;;;;;;19.13;13.77;;;;;;;-3.82;89.95;93198.09;5005029;28;20814;-78
2020/12/04 03:27:31;;;;;;;14.20;12.73;;;;;;;-3.82;89.27;93192.97;5002138;28;20598;-78
2020/12/04 03:29:59;;;;;;;24.20;13.30;;;;;;;-3.83;89.97;93186.19;4984743;28;20903;-78
2020/12/04 03:32:26;;;;;;;11.97;9.90;;;;;;;-3.82;89.85;93187.81;4998378;28;20467;-78
2020/12/04 03:34:53;;;;;;;13.23;11.27;;;;;;;-3.80;90.28;93173.00;4970529;28;20549;-77
2020/12/04 03:37:21;;;;;;;15.43;11.40;;;;;;;-3.78;90.40;93173.63;4988389;28;20468;-77
2020/12/04 03:39:48;;;;;;;12.63;9.80;;;;;;;-3.73;89.98;93176.53;5005628;28;20467;-78
2020/12/04 03:42:15;;;;;;;16.00;13.30;;;;;;;-3.73;89.92;93179.13;4998263;28;21027;-77
2020/12/04 03:44:41;;;;;;;15.50;12.00;;;;;;;-3.67;90.48;93179.44;4998587;28;20479;-78
2020/12/04 03:47:09;;;;;;;16.23;12.23;;;;;;;-3.73;89.52;93171.41;4986242;28;20494;-78
2020/12/04 03:49:36;;;;;;;19.33;11.30;;;;;;;-3.69;89.91;93171.06;4965566;28;20778;-78
2020/12/04 03:52:03;;;;;;;15.33;11.63;;;;;;;-3.60;89.45;93170.91;5004103;28;21033;-78
2020/12/04 03:54:29;;;;;;;13.93;12.50;;;;;;;-3.66;89.07;93168.16;5005387;28;20557;-78
2020/12/04 03:56:56;;;;;;;14.27;11.70;;;;;;;-3.66;89.79;93165.59;5006156;28;20529;-78
2020/12/04 03:59:23;;;;;;;14.00;11.80;;;;;;;-3.67;90.02;93161.41;4996569;28;20790;-78
2020/12/04 04:01:50;;;;;;;20.40;13.80;;;;;;;-3.64;90.03;93168.84;4986676;28;21005;-78
2020/12/04 04:04:17;;;;;;;14.20;10.50;;;;;;;-3.51;89.80;93166.56;4985099;28;20476;-78
2020/12/04 04:06:44;;;;;;;15.53;13.20;;;;;;;-3.59;89.73;93166.56;4992920;28;20459;-77
2020/12/04 04:09:11;;;;;;;13.23;9.90;;;;;;;-3.61;89.10;93150.47;4983554;28;20474;-78
2020/12/04 04:11:38;;;;;;;14.60;10.07;;;;;;;-3.61;89.59;93153.03;5006754;28;21060;-78
2020/12/04 04:14:05;;;;;;;13.20;11.87;;;;;;;-3.60;89.95;93157.22;5002285;28;20474;-76
2020/12/04 04:16:31;;;;;;;15.63;12.27;;;;;;;-3.50;89.69;93150.13;5009203;28;20494;-77
2020/12/04 04:18:58;;;;;;;16.20;12.63;;;;;;;-3.53;89.88;93150.47;5007624;28;20554;-76
2020/12/04 04:21:26;;;;;;;15.80;12.23;;;;;;;-3.49;89.23;93151.75;5002886;28;20640;-77
2020/12/04 04:23:53;;;;;;;15.87;12.30;;;;;;;-3.54;89.62;93156.59;5006422;28;20570;-76
2020/12/04 04:26:19;;;;;;;17.27;13.73;;;;;;;-3.49;89.57;93151.75;4990367;28;20919;-76
2020/12/04 04:28:46;;;;;;;17.87;12.33;;;;;;;-3.39;88.49;93160.13;4998061;28;20566;-76
2020/12/04 04:31:14;;;;;;;19.10;11.83;;;;;;;-3.43;88.67;93145.97;5000602;28;20494;-77
2020/12/04 04:33:41;;;;;;;16.30;12.13;;;;;;;-3.46;88.51;93156.59;4992904;28;20977;-76
2020/12/04 04:36:08;;;;;;;17.90;15.07;;;;;;;-3.51;89.10;93148.53;4985111;28;20552;-77
2020/12/04 04:38:36;;;;;;;18.77;10.73;;;;;;;-3.46;89.52;93147.09;4977063;28;20562;-77
2020/12/04 04:41:03;;;;;;;16.23;13.30;;;;;;;-3.41;88.52;93159.47;4971556;28;20487;-77
2020/12/04 04:43:30;;;;;;;13.93;10.63;;;;;;;-3.44;88.69;93146.94;4983110;28;20558;-76
2020/12/04 04:46:05;;;;;;;14.00;12.13;;;;;;;-3.46;89.32;93157.41;4999344;28;21015;-76
2020/12/04 04:48:33;;;;;;;16.13;10.90;;;;;;;-3.42;89.58;93150.16;4988677;28;20605;-77
2020/12/04 04:51:00;;;;;;;21.63;13.77;;;;;;;-3.45;89.13;93156.44;5002570;28;20546;-77
2020/12/04 04:53:27;;;;;;;15.33;12.30;;;;;;;-3.42;89.49;93162.22;5003707;28;20491;-77
2020/12/04 04:55:56;;;;;;;16.33;11.90;;;;;;;-3.45;89.09;93161.59;5001971;28;21007;-77
2020/12/04 04:58:23;;;;;;;10.90;9.80;;;;;;;-3.40;90.06;93165.44;5004763;28;20471;-76
2020/12/04 05:00:50;;;;;;;17.10;12.10;;;;;;;-3.40;89.44;93155.94;4985223;28;20460;-77
2020/12/04 05:03:16;;;;;;;17.37;11.23;;;;;;;-3.35;89.73;93164.00;4976705;28;20951;-77
2020/12/04 05:05:45;;;;;;;15.87;13.50;;;;;;;-3.33;89.68;93159.50;4998152;28;20556;-77
2020/12/04 05:08:16;;;;;;;16.33;12.73;;;;;;;-3.31;89.92;93154.16;4999808;28;20852;-77
2020/12/04 05:10:43;;;;;;;13.77;10.57;;;;;;;-3.30;90.05;93156.56;4986226;28;20510;-77
2020/12/04 05:13:11;;;;;;;15.67;11.80;;;;;;;-3.25;90.25;93159.50;4991018;28;20520;-77
2020/12/04 05:15:40;;;;;;;17.37;13.10;;;;;;;-3.23;89.57;93162.69;4996717;28;21006;-77
2020/12/04 05:18:10;;;;;;;17.37;14.40;;;;;;;-3.27;89.17;93182.06;5002830;28;20545;-77
2020/12/04 05:20:39;;;;;;;17.73;12.87;;;;;;;-3.27;89.05;93166.59;4999440;28;20652;-77
2020/12/04 05:23:07;;;;;;;15.23;11.67;;;;;;;-3.23;89.06;93167.88;5005739;28;20509;-77
2020/12/04 05:25:38;;;;;;;18.33;14.00;;;;;;;-3.33;89.17;93172.38;5006736;28;20553;-76
2020/12/04 05:28:11;;;;;;;14.10;11.67;;;;;;;-3.25;89.88;93169.81;4997707;28;20474;-77
2020/12/04 05:30:40;;;;;;;16.23;14.53;;;;;;;-3.25;89.38;93180.13;5005261;28;20467;-77
2020/12/04 05:33:08;;;;;;;14.77;12.50;;;;;;;-3.27;89.21;93161.44;5003825;28;20526;-77
2020/12/04 05:35:36;;;;;;;16.10;14.43;;;;;;;-3.28;88.88;93180.44;5005031;28;20539;-77
2020/12/04 05:38:13;;;;;;;20.47;14.93;;;;;;;-3.19;88.89;93196.72;4994829;28;20563;-77
2020/12/04 05:40:42;;;;;;;13.90;9.60;;;;;;;-3.26;89.14;93183.66;5003978;28;20459;-77
2020/12/04 05:43:11;;;;;;;14.53;12.37;;;;;;;-3.26;88.93;93172.56;4987165;28;20843;-77
2020/12/04 05:45:38;;;;;;;13.53;11.07;;;;;;;-3.23;89.59;93167.88;4993858;28;20478;-77
2020/12/04 05:48:13;;;;;;;18.40;13.47;;;;;;;-3.24;89.75;93181.72;5006916;28;20553;-77
2020/12/04 05:50:41;;;;;;;13.53;10.50;;;;;;;-3.17;89.43;93162.06;5002820;28;20985;-77
2020/12/04 05:53:08;;;;;;;17.37;12.67;;;;;;;-3.13;89.27;93161.72;4999002;28;20563;-77
2020/12/04 05:55:36;;;;;;;19.17;14.00;;;;;;;-3.05;89.30;93201.22;5007145;28;20471;-77
2020/12/04 05:58:08;;;;;;;17.37;14.37;;;;;;;-3.20;88.90;93188.19;4997162;28;20460;-77
2020/12/04 06:00:36;;;;;;;19.93;14.27;;;;;;;-3.10;88.94;93182.06;4991869;28;20548;-77
2020/12/04 06:03:04;;;;;;;18.10;13.57;;;;;;;-3.29;89.09;93191.72;4992435;28;20537;-77
2020/12/04 06:05:32;;;;;;;15.67;11.07;;;;;;;-3.21;89.54;93176.22;5006339;28;20495;-77
2020/12/04 06:08:01;;;;;;;15.80;13.73;;;;;;;-3.17;89.42;93150.94;5004788;28;20467;-77
2020/12/04 06:10:29;;;;;;;20.63;16.00;;;;;;;-3.21;89.72;93181.41;4985690;28;21066;-77
2020/12/04 06:12:57;;;;;;;17.43;15.53;;;;;;;-3.16;89.12;93176.56;4999989;28;20881;-76
2020/12/04 06:15:26;;;;;;;15.63;11.97;;;;;;;-3.20;89.23;93195.09;5003627;28;20530;-77
2020/12/04 06:18:03;;;;;;;18.10;13.17;;;;;;;-3.10;88.86;93177.72;4996334;28;20825;-77
2020/12/04 06:20:40;;;;;;;16.50;12.67;;;;;;;-3.25;89.02;93195.59;4968200;28;21005;-77
2020/12/04 06:23:10;;;;;;;13.87;11.73;;;;;;;-3.21;88.77;93165.91;5016567;28;20558;-77
2020/12/04 06:26:00;;;;;;;15.83;14.27;;;;;;;-3.20;89.55;93146.94;4997427;28;20472;-79
2020/12/04 06:28:30;;;;;;;22.93;16.93;;;;;;;-3.17;89.54;93141.44;4994900;28;20484;-79
2020/12/04 06:31:08;;;;;;;18.97;14.47;;;;;;;-3.20;89.46;93115.16;5007593;28;20491;-78
2020/12/04 06:33:42;;;;;;;19.03;14.97;;;;;;;-3.18;89.47;93142.41;4985745;28;20467;-77
2020/12/04 06:36:11;;;;;;;21.37;15.33;;;;;;;-3.09;89.31;93124.34;5000780;28;21051;-77
2020/12/04 06:38:48;;;;;;;29.30;22.50;;;;;;;-3.05;88.94;93128.19;5001219;28;20529;-78
2020/12/04 06:41:29;;;;;;;22.03;17.13;;;;;;;-3.13;88.65;93151.41;4988220;28;20463;-77
2020/12/04 06:43:58;;;;;;;20.03;14.50;;;;;;;-3.05;88.55;93184.94;4993173;28;20498;-78
2020/12/04 06:46:42;;;;;;;19.00;15.37;;;;;;;-3.15;88.91;93177.38;4994161;28;20471;-78
2020/12/04 06:49:12;;;;;;;25.87;15.83;;;;;;;-3.15;88.89;93180.75;4986232;28;20543;-78
2020/12/04 06:51:40;;;;;;;20.93;15.07;;;;;;;-3.12;89.16;93202.03;4991978;28;21164;-78
2020/12/04 06:54:07;;;;;;;49.90;29.40;;;;;;;-3.11;88.52;93170.09;4987804;28;20554;-77
2020/12/04 06:56:34;;;;;;;38.70;23.67;;;;;;;-3.09;88.95;93196.56;5006049;28;21209;-77
2020/12/04 06:59:01;;;;;;;27.77;18.33;;;;;;;-2.96;88.80;93171.06;4996613;28;21010;-77
2020/12/04 07:01:29;;;;;;;23.20;16.50;;;;;;;-3.06;88.37;93178.19;4987683;28;20522;-77
2020/12/04 07:04:05;;;;;;;22.70;14.50;;;;;;;-3.10;89.00;93176.91;4988666;28;20526;-77
2020/12/04 07:06:32;;;;;;;24.73;14.50;;;;;;;-3.09;89.22;93174.16;4993141;28;20991;-77
2020/12/04 07:09:03;;;;;;;17.90;16.00;;;;;;;-3.12;89.64;93171.06;5002541;28;20580;-77
2020/12/04 07:11:30;;;;;;;24.63;15.93;;;;;;;-3.16;89.37;93188.66;5002131;28;20513;-77
2020/12/04 07:13:57;;;;;;;19.43;15.63;;;;;;;-3.12;89.93;93181.41;4993111;28;20872;-77
2020/12/04 07:16:24;;;;;;;17.67;14.30;;;;;;;-3.10;89.77;93177.72;4988617;28;20455;-78
2020/12/04 07:18:53;;;;;;;24.30;15.80;;;;;;;-3.05;90.20;93184.94;5003186;28;20475;-78
2020/12/04 07:21:20;;;;;;;22.10;16.13;;;;;;;-3.07;89.28;93166.25;4987111;28;20484;-78
2020/12/04 07:23:48;;;;;;;19.80;14.00;;;;;;;-3.07;89.82;93169.63;4985752;28;20511;-77
2020/12/04 07:26:17;;;;;;;19.87;15.40;;;;;;;-3.08;89.33;93180.91;4985602;28;20839;-77
2020/12/04 07:28:45;;;;;;;16.80;13.50;;;;;;;-3.07;89.79;93181.72;4986196;28;20504;-76
2020/12/04 07:31:17;;;;;;;22.33;15.53;;;;;;;-3.07;89.70;93177.38;4987307;28;20464;-76
2020/12/04 07:33:51;;;;;;;30.57;18.83;;;;;;;-3.07;89.47;93181.72;4992345;28;20473;-77
2020/12/04 07:36:18;;;;;;;22.47;15.63;;;;;;;-3.07;89.70;93181.72;4984196;28;20550;-76
2020/12/04 07:38:50;;;;;;;25.67;16.63;;;;;;;-3.06;88.94;93160.91;4996841;28;20471;-77
2020/12/04 07:41:25;;;;;;;27.37;20.00;;;;;;;-2.99;89.23;93161.09;4982362;28;20515;-76
2020/12/04 07:43:56;;;;;;;19.07;14.00;;;;;;;-2.98;88.56;93170.44;4992836;28;20498;-77
2020/12/04 07:46:23;;;;;;;20.37;14.93;;;;;;;-2.97;88.79;93172.84;5004148;28;20658;-76
2020/12/04 07:49:01;;;;;;;17.13;13.43;;;;;;;-2.97;88.71;93177.19;5003830;28;20927;-77
2020/12/04 07:51:29;;;;;;;18.80;15.40;;;;;;;-2.93;88.87;93178.47;4993032;28;20488;-77
2020/12/04 07:53:58;;;;;;;17.27;14.50;;;;;;;-2.91;89.03;93181.72;4998155;28;20468;-77
2020/12/04 07:56:26;;;;;;;16.23;14.60;;;;;;;-2.88;88.96;93179.59;5003598;28;20487;-77
2020/12/04 07:58:58;;;;;;;17.50;13.77;;;;;;;-2.79;89.63;93179.59;5006019;28;20464;-78
2020/12/04 08:01:26;;;;;;;18.93;15.07;;;;;;;-2.77;89.44;93172.47;4986653;28;20539;-77
2020/12/04 08:03:55;;;;;;;29.87;16.40;;;;;;;-2.72;88.82;93165.88;4975724;28;20475;-77
2020/12/04 08:06:23;;;;;;;19.90;16.77;;;;;;;-2.73;88.62;93164.25;4986222;28;20614;-77
2020/12/04 08:09:10;;;;;;;24.33;17.43;;;;;;;-2.70;88.58;93152.78;4998130;28;20461;-77
2020/12/04 08:11:39;;;;;;;25.63;18.97;;;;;;;-2.74;88.47;93160.06;5004703;28;20898;-78
2020/12/04 08:14:06;;;;;;;27.17;18.83;;;;;;;-2.68;88.30;93169.72;4998048;28;20587;-77
2020/12/04 08:16:33;;;;;;;21.33;15.60;;;;;;;-2.68;87.79;93158.59;4994128;28;20853;-77
2020/12/04 08:19:10;;;;;;;22.10;16.20;;;;;;;-2.63;87.43;93157.13;5003440;28;20463;-77
2020/12/04 08:21:54;;;;;;;16.37;14.43;;;;;;;-2.67;87.22;93155.84;4999436;28;21099;-77
2020/12/04 08:24:24;;;;;;;15.77;12.37;;;;;;;-2.55;87.04;93160.66;4991417;28;20486;-77
2020/12/04 08:27:05;;;;;;;18.37;13.27;;;;;;;-2.39;86.90;93153.66;4984933;28;20456;-77
2020/12/04 08:29:32;;;;;;;17.57;12.70;;;;;;;-2.42;86.11;93148.81;5004146;28;20470;-77
2020/12/04 08:32:11;;;;;;;24.33;17.40;;;;;;;-2.50;86.70;93156.59;4999000;28;20486;-77
2020/12/04 08:34:39;;;;;;;18.00;14.53;;;;;;;-2.52;86.65;93160.31;4993280;28;20808;-77
2020/12/04 08:37:08;;;;;;;20.03;14.97;;;;;;;-2.56;87.40;93162.44;4998416;28;20487;-77
2020/12/04 08:39:38;;;;;;;19.67;15.27;;;;;;;-2.37;86.74;93163.84;5001073;28;20468;-77
2020/12/04 08:42:15;;;;;;;67.27;35.30;;;;;;;-2.26;86.24;93154.91;4994475;28;20900;-77
2020/12/04 08:44:42;;;;;;;56.03;33.83;;;;;;;-2.27;85.58;93159.28;5001169;28;20824;-77
2020/12/04 08:47:09;;;;;;;36.53;23.10;;;;;;;-2.31;85.67;93147.66;4979743;28;20993;-77
2020/12/04 08:49:36;;;;;;;26.77;18.63;;;;;;;-2.29;85.72;93140.53;4987925;28;20460;-77
2020/12/04 08:52:03;;;;;;;22.13;18.10;;;;;;;-2.25;85.86;93136.66;4980593;28;20546;-77
2020/12/04 08:54:30;;;;;;;19.47;15.73;;;;;;;-2.16;85.33;93135.66;4999939;28;20482;-76
2020/12/04 08:56:57;;;;;;;19.37;15.47;;;;;;;-2.15;85.35;93145.00;4998232;28;20539;-77
2020/12/04 08:59:25;;;;;;;19.97;14.80;;;;;;;-2.23;85.64;93139.88;5005681;28;21016;-77
2020/12/04 09:01:53;;;;;;;20.47;15.87;;;;;;;-2.28;86.16;93131.84;5003720;28;20475;-77
2020/12/04 09:04:19;;;;;;;22.57;15.53;;;;;;;-2.18;85.84;93149.72;5005801;28;20452;-77
2020/12/04 09:06:46;;;;;;;22.43;17.43;;;;;;;-2.17;85.90;93128.88;5003823;28;20547;-77
2020/12/04 09:09:13;;;;;;;22.20;18.27;;;;;;;-2.07;86.08;93131.25;4980459;28;21070;-77
2020/12/04 09:11:40;;;;;;;21.97;14.57;;;;;;;-1.99;85.96;93130.41;5001180;28;20471;-77
2020/12/04 09:14:08;;;;;;;21.67;17.20;;;;;;;-2.04;85.87;93134.28;4982369;28;20467;-77
2020/12/04 09:16:34;;;;;;;17.80;13.83;;;;;;;-2.02;85.85;93142.66;4999645;28;20526;-77
2020/12/04 09:19:01;;;;;;;17.20;15.27;;;;;;;-1.93;85.70;93145.22;5006419;28;20550;-76
2020/12/04 09:21:28;;;;;;;22.13;14.87;;;;;;;-1.89;85.86;93141.31;4997958;28;20542;-77
2020/12/04 09:23:55;;;;;;;16.57;13.80;;;;;;;-1.85;85.73;93138.22;4998451;28;21029;-77
2020/12/04 09:26:22;;;;;;;16.20;13.53;;;;;;;-1.78;84.98;93139.13;4999279;28;20547;-77
2020/12/04 09:28:49;;;;;;;26.23;17.70;;;;;;;-1.71;84.58;93126.34;5002244;28;20517;-77
2020/12/04 09:31:16;;;;;;;20.73;16.07;;;;;;;-1.65;84.39;93127.41;4996576;28;20482;-77
2020/12/04 09:33:43;;;;;;;22.47;15.23;;;;;;;-1.62;84.54;93111.59;4986756;28;20480;-77
2020/12/04 09:36:10;;;;;;;19.63;15.23;;;;;;;-1.55;84.30;93113.31;5002314;28;20495;-77
2020/12/04 09:38:37;;;;;;;19.17;13.77;;;;;;;-1.46;84.04;93120.03;4987613;28;20500;-77
2020/12/04 09:41:04;;;;;;;23.13;16.60;;;;;;;-1.38;84.27;93118.31;5007338;28;20507;-77
2020/12/04 09:43:31;;;;;;;18.83;14.40;;;;;;;-1.33;83.89;93119.44;4993514;28;20550;-77
2020/12/04 09:45:57;;;;;;;21.80;16.67;;;;;;;-1.32;83.93;93107.28;4990548;28;20562;-77
2020/12/04 09:48:25;;;;;;;19.73;14.40;;;;;;;-1.25;83.05;93113.38;4998705;28;20862;-77
2020/12/04 09:50:53;;;;;;;16.07;14.03;;;;;;;-1.33;82.94;93095.34;4989308;28;20509;-78
2020/12/04 09:53:20;;;;;;;15.53;13.60;;;;;;;-1.25;82.94;93088.31;4987283;28;20472;-78
2020/12/04 09:55:46;;;;;;;17.27;14.80;;;;;;;-1.28;82.07;93080.09;4987619;28;20491;-77
2020/12/04 09:58:13;;;;;;;24.17;14.93;;;;;;;-1.28;82.53;93080.09;4994263;28;20463;-78
2020/12/04 10:00:40;;;;;;;18.13;15.13;;;;;;;-1.29;82.61;93087.03;4993912;28;20534;-78
2020/12/04 10:03:07;;;;;;;26.27;19.73;;;;;;;-1.31;82.50;93083.84;4988648;28;20500;-77
2020/12/04 10:05:35;;;;;;;20.00;17.10;;;;;;;-1.33;83.18;93074.66;4959953;28;20723;-78
2020/12/04 10:08:02;;;;;;;23.80;16.63;;;;;;;-1.31;83.13;93072.69;4996145;28;20539;-78
2020/12/04 10:10:29;;;;;;;17.20;15.40;;;;;;;-1.23;82.25;93076.00;4972550;28;20892;-78
2020/12/04 10:12:56;;;;;;;25.43;18.50;;;;;;;-1.32;82.09;93076.25;4978625;28;20477;-78
2020/12/04 10:15:23;;;;;;;21.50;18.27;;;;;;;-1.40;82.76;93068.56;4985567;28;21613;-78
2020/12/04 10:17:49;;;;;;;22.70;17.70;;;;;;;-1.43;82.97;93074.91;4996011;28;20587;-78
2020/12/04 10:20:16;;;;;;;23.97;16.87;;;;;;;-1.46;83.58;93060.53;5000958;28;20554;-78
2020/12/04 10:22:44;;;;;;;19.87;15.43;;;;;;;-1.37;83.25;93058.69;4995593;28;20495;-78
2020/12/04 10:25:11;;;;;;;21.00;16.83;;;;;;;-1.29;82.50;93055.19;5001685;28;20467;-78
2020/12/04 10:27:38;;;;;;;17.93;15.37;;;;;;;-1.38;82.47;93045.91;4999115;28;20566;-78
2020/12/04 10:30:05;;;;;;;21.37;16.43;;;;;;;-1.41;82.79;93030.75;4983826;28;20487;-78
2020/12/04 10:32:32;;;;;;;20.33;16.17;;;;;;;-1.41;83.12;93035.91;5010612;28;20529;-78
2020/12/04 10:34:59;;;;;;;22.70;18.20;;;;;;;-1.36;83.50;93033.63;5031372;28;20537;-78
2020/12/04 10:37:26;;;;;;;20.93;15.63;;;;;;;-1.35;83.21;93032.63;5042424;28;20538;-78
2020/12/04 10:39:55;;;;;;;28.00;19.47;;;;;;;-1.31;83.06;93032.09;5045165;28;20457;-78
2020/12/04 10:42:22;;;;;;;23.50;17.93;;;;;;;-1.33;83.11;93035.84;5042976;28;20490;-78
2020/12/04 10:44:49;;;;;;;20.13;15.70;;;;;;;-1.30;83.23;93027.72;5042565;28;20836;-78
2020/12/04 10:47:16;;;;;;;24.83;17.47;;;;;;;-1.31;83.75;93018.34;5043792;28;20565;-78
2020/12/04 10:49:42;;;;;;;23.03;15.73;;;;;;;-1.25;83.72;93009.91;5042910;28;20519;-79
2020/12/04 10:52:09;;;;;;;24.97;17.63;;;;;;;-1.29;84.17;93004.25;5041245;28;20595;-79
2020/12/04 10:54:36;;;;;;;24.30;16.97;;;;;;;-1.22;84.71;93000.00;5045811;28;21066;-78
2020/12/04 10:57:04;;;;;;;27.27;17.57;;;;;;;-1.15;84.06;93018.19;5041037;28;20515;-79
2020/12/04 10:59:31;;;;;;;24.90;16.43;;;;;;;-1.13;83.81;93003.28;5045613;28;20486;-79
2020/12/04 11:02:05;;;;;;;24.03;18.00;;;;;;;-0.99;83.52;93005.09;5044616;28;20519;-78
2020/12/04 11:07:17;;;;;;;19.90;15.67;;;;;;;-0.93;82.25;93006.94;5040387;28;21049;-79
2020/12/04 11:09:58;;;;;;;20.17;14.83;;;;;;;-0.84;81.80;92993.91;5032619;28;20543;-78
2020/12/04 11:12:26;;;;;;;22.17;15.80;;;;;;;-0.92;82.01;92994.81;5038524;28;20474;-79
2020/12/04 11:14:53;;;;;;;22.47;15.73;;;;;;;-0.90;82.75;92993.66;5026781;28;20482;-79
2020/12/04 11:17:20;;;;;;;19.67;15.30;;;;;;;-0.86;82.77;92984.53;5045810;28;20586;-79
2020/12/04 11:19:46;;;;;;;22.33;14.90;;;;;;;-0.80;83.02;92974.47;5026942;28;20558;-79
2020/12/04 11:22:14;;;;;;;21.37;16.27;;;;;;;-0.74;82.83;92978.88;5021075;28;20561;-79
2020/12/04 11:24:41;;;;;;;28.93;16.90;;;;;;;-0.65;82.78;92970.03;5045293;28;20718;-78